Ahsahka, ID (83520)

1:09 PM PDT on October 25, 2014 (GMT -0700)
APRSWXNET Orofino ID US | Change Station
CLOSE
Current Station
Personal Weather Station
Location: Ahsahka, ID
Elevation: 1046 ft
Nearby Weather Stations
Active Advisory: Wind Advisory

Elev 1046 ft 46.48 °N, 116.27 °W | Updated 44 minutes ago

Clear
Clear
53.0 °F
Feels Like 53.0 °F
N
0.0
Wind Variable Wind from ENE

Today
High -- | Low -- °F
--% Chance of Precip.
Yesterday
High -- | Low -- °F
Precip. -- in
7:16 AM 5:40 PM
Waxing Crescent, 4% visible
Pressure 29.59 in
Visibility 10.0 miles
Clouds Clear
Dew Point 48.0 °F
Humidity 83%
Rainfall -999.00 in
Snow Depth 0 in
UV 3 out of 12
Pollen 2.40 out of 12
Air Quality Not available.
Flu Activity No Activity
METAR KLWS 251956Z 09007KT 10SM CLR 17/09 A2959 RMK AO2 SLP018 T01670094

More Conditions Fewer Conditions

Pressure 29.59 in
Visibility 10.0 miles
Clouds Clear
Dew Point 48.0 °F
Humidity 83%
Rainfall -999.00 in
Snow Depth 0 in
UV 3 out of 12
Pollen 2.40 out of 12
Air Quality Not available.
Flu Activity No Activity
METAR KLWS 251956Z 09007KT 10SM CLR 17/09 A2959 RMK AO2 SLP018 T01670094

More Conditions Fewer Conditions

10-Day Weather Forecast

Almanac

Astronomy

Oct. 25, 2014 Rise Set
Actual Time 7:16 AM PDT 5:40 PM PDT
Civil Twilight 6:45 AM PDT 6:11 PM PDT
Nautical Twilight 6:10 AM PDT 6:46 PM PDT
Astronomical Twilight 5:35 AM PDT 7:21 PM PDT
Moon 9:04 AM PDT 7:01 PM PDT
Length of Visible Light 11h 25m
Length of Day
10h 23m
Tomorrow will be 3m 4s shorter.
Waxing Crescent, 4% of the Moon is Illuminated
Today
Waxing Crescent
Oct 30
First Quarter
Nov 6
Full
Nov 14
Last Quarter
Nov 22
New

Today's Extremes

State Highs State Lows

Community

WunderPhotos

Upload Photos

1,764,976 photos uploaded!

Nearby

Snow Depth

Station Depth Elevation
Elk Butte 0 in 5690 ft
Hemlock Butte 0 in 5810 ft
Moscow Mountain 0 in 4700 ft
Lost Lake 0 in 6110 ft
Mica Creek 1 in 4750 ft

Earthquake Activity

City Distance Mag. Time & Date
No recent earthquake activity has been reported nearby.
Minimum magnitude displayed is 2.5.

Coastal Water Temperatures

Place Temperature
No Stations Reporting

Nearby Weather Stations